Terminal Aerodrome Forecast
Issued by NWS Jacksonville, FL

Home | Current Version | Previous Version | Text Only | Print | Product List | Glossary On
Versions: 1 2 3 4 5 6 7 8 9 10 11 12 13 14 15
237
FTUS42 KJAX 190949 AAB
TAFGNV
TAF AMD
KGNV 190949Z 1910/2006 26005KT P6SM OVC003
      TEMPO 1910/1912 1SM BR
     FM191300 25012G20KT P6SM FEW040 SCT250
     FM192300 30010KT P6SM SCT050 BKN250=

USA.gov is the U.S. government's official web portal to all federal, state and local government web resources and services.